Terminal Aerodrome Forecast
Issued by NWS Tulsa, OK

Home | Current Version | Previous Version | Text Only | Print | Product List | Glossary On
Versions: 1 2 3 4 5 6 7 8 9 10 11 12 13 14 15 16 17 18 19 20 21
000
FTUS44 KTSA 280500
TAFFSM
TAF
KFSM 280521Z 2806/0106 VRB06KT P6SM OVC050
     FM281200 VRB06KT P6SM -SN OVC020
      TEMPO 2814/2818 4SM -SN OVC010
     FM281800 13005KT 1SM -SN BR OVC010=

USA.gov is the U.S. government's official web portal to all federal, state and local government web resources and services.